Rechercher aéroport 
image banner adimage banner adimage banner ad
image banner ad

KPNE - Northeast Philadelphia

Situé à Philadelphia, United States

ICAO - PNE, IATA -

Données fournies par Airmate  

Information générale

Coordonnées: N40°4'55" W75°0'38"
Élévation : 120 feet MSL.
Variation magnétique : -12° East
Voir autres Aéroports à Pennsylvania

Données opérationnelles

Special qualification required
Heure actuelle UTC:
Heure actuelle locale:
Météo
METAR: KPNE 131954Z VRB04KT 10SM OVC039 24/17 A2991 RMK AO2 SLP126 T02440172
TAF: KPNE 131728Z 1318/1418 20005KT P6SM BKN045 FM132300 16004KT P6SM BKN045 FM140500 17004KT P6SM -SHRA OVC025 FM140900 15004KT 4SM -SHRA BR OVC015 FM141200 19005KT P6SM BKN010
Voir NOTAMs / SUP AIP / TFR affectant cet aéroport [VIEW]
Fréquences de communication: [VIEW]

Pistes:

Identifiant RWYQFULongueur (ft)Largeur (ft)SurfaceLDA (ft)
0648°7000100ASPH
24228°7000100ASPH
15141°5000150ASPH
33321°5000150ASPH

Coordonnées de l'aéroport

Adresse: Philadelphia United States

Autres services d'aviation

Écoles de pilotage

Sky River Helicopters

Sky River Helicopters

Legacy Aviation

Legacy Aviation

Vue satellite de KPNE